createdAt,value
2019-04-21T00:00:45.772Z,101765.04
2019-04-21T00:03:19.410Z,101760.55
2019-04-21T00:06:07.521Z,101758.69
2019-04-21T00:08:37.975Z,101757.17
2019-04-21T00:11:09.329Z,101752.50
2019-04-21T00:13:32.589Z,101756.83
2019-04-21T00:15:54.053Z,101755.47
2019-04-21T00:18:44.101Z,101752.63
2019-04-21T00:21:14.820Z,101755.14
2019-04-21T00:23:53.788Z,101751.95
2019-04-21T00:26:25.373Z,101739.91
2019-04-21T00:29:05.067Z,101740.22
2019-04-21T00:31:27.101Z,101737.90
2019-04-21T00:33:41.640Z,101731.38
2019-04-21T00:36:16.661Z,101730.20
2019-04-21T00:39:14.348Z,101732.69
2019-04-21T00:41:34.004Z,101728.00
2019-04-21T00:43:59.595Z,101725.65
2019-04-21T00:46:32.245Z,101724.32
2019-04-21T00:49:01.371Z,101733.15
2019-04-21T00:52:00.551Z,101728.62
2019-04-21T00:54:16.961Z,101722.45
2019-04-21T00:56:49.557Z,101732.61
2019-04-21T00:59:19.279Z,101725.74
2019-04-21T01:01:52.775Z,101727.39
2019-04-21T01:04:18.212Z,101722.89
2019-04-21T01:06:57.640Z,101720.88
2019-04-21T01:09:19.814Z,101723.02
2019-04-21T01:11:59.626Z,101711.31
2019-04-21T01:14:29.884Z,101714.98
2019-04-21T01:16:58.209Z,101717.63
2019-04-21T01:19:26.931Z,101712.25
2019-04-21T01:21:36.384Z,101707.72
2019-04-21T01:24:15.243Z,101703.03
2019-04-21T01:26:49.453Z,101706.85
2019-04-21T01:29:27.749Z,101705.33
2019-04-21T01:32:05.114Z,101700.11
2019-04-21T01:34:32.997Z,101693.56
2019-04-21T01:36:58.464Z,101693.21
2019-04-21T01:39:34.966Z,101688.83
2019-04-21T01:42:04.816Z,101691.46
2019-04-21T01:44:54.814Z,101686.63
2019-04-21T01:47:02.849Z,101692.72
2019-04-21T01:49:33.409Z,101690.84
2019-04-21T01:52:34.992Z,101685.08
2019-04-21T01:55:06.494Z,101686.48
2019-04-21T01:57:50.332Z,101681.44
2019-04-21T02:00:30.540Z,101677.87
2019-04-21T02:03:14.939Z,101679.16
2019-04-21T02:05:37.968Z,101683.11
2019-04-21T02:08:00.786Z,101672.41
2019-04-21T02:10:42.838Z,101673.23
2019-04-21T02:13:04.869Z,101672.34
2019-04-21T02:15:43.570Z,101672.13
2019-04-21T02:18:10.466Z,101666.76
2019-04-21T02:20:32.771Z,101669.38
2019-04-21T02:23:26.383Z,101659.36
2019-04-21T02:25:44.211Z,101656.00
2019-04-21T02:28:24.415Z,101651.84
2019-04-21T02:31:04.936Z,101659.63
2019-04-21T02:33:46.537Z,101659.78
2019-04-21T02:36:18.990Z,101655.59
2019-04-21T02:41:01.236Z,101649.42
2019-04-21T02:43:39.176Z,101650.75
2019-04-21T02:46:10.576Z,101643.41
2019-04-21T02:48:38.951Z,101638.58
2019-04-21T02:54:10.473Z,101635.05
2019-04-21T02:56:18.567Z,101637.86
2019-04-21T02:58:58.345Z,101634.51
2019-04-21T03:01:48.494Z,101630.46
2019-04-21T03:04:30.210Z,101629.45
2019-04-21T03:07:19.455Z,101628.91
2019-04-21T03:09:45.926Z,101619.05
2019-04-21T03:12:20.034Z,101614.51
2019-04-21T03:20:10.522Z,101622.97
2019-04-21T03:22:25.014Z,101618.77
2019-04-21T03:27:50.175Z,101614.58
2019-04-21T03:29:59.400Z,101612.41
2019-04-21T03:33:09.504Z,101612.20
2019-04-21T03:35:34.468Z,101611.86
2019-04-21T03:37:49.356Z,101605.70
2019-04-21T03:47:40.538Z,101599.36
2019-04-21T03:52:47.799Z,101602.44
2019-04-21T03:58:16.918Z,101593.67
2019-04-21T04:01:17.949Z,101598.38
2019-04-21T04:04:06.334Z,101590.23
2019-04-21T04:09:21.268Z,101595.12
2019-04-21T04:11:43.344Z,101590.48
2019-04-21T04:14:26.878Z,101590.98
2019-04-21T04:19:26.475Z,101590.59
2019-04-21T04:21:57.474Z,101585.13
2019-04-21T04:31:47.493Z,101573.34
2019-04-21T04:34:29.170Z,101572.08
2019-04-21T04:37:06.006Z,101572.28
2019-04-21T04:42:39.200Z,101571.86
2019-04-21T04:47:22.730Z,101565.45
2019-04-21T04:49:51.681Z,101564.71
2019-04-21T04:52:32.521Z,101563.06
2019-04-21T05:00:14.501Z,101555.15
2019-04-21T05:05:14.129Z,101555.20
2019-04-21T05:15:07.881Z,101551.08
2019-04-21T05:17:55.384Z,101549.11
2019-04-21T05:20:13.275Z,101543.59
2019-04-21T05:22:35.438Z,101546.45
2019-04-21T05:25:06.844Z,101541.82
2019-04-21T05:27:39.914Z,101536.66
2019-04-21T05:30:26.644Z,101544.16
2019-04-21T05:33:27.772Z,101536.99
2019-04-21T05:36:03.109Z,101535.50
2019-04-21T05:38:53.076Z,101535.84
2019-04-21T05:41:15.496Z,101528.97
2019-04-21T05:43:56.457Z,101528.95
2019-04-21T05:46:32.246Z,101531.09
2019-04-21T05:49:05.599Z,101520.41
2019-04-21T05:51:30.535Z,101519.56
2019-04-21T05:54:14.965Z,101516.84
2019-04-21T05:56:46.461Z,101511.28
2019-04-21T05:59:10.286Z,101515.25
2019-04-21T06:02:08.978Z,101514.52
2019-04-21T06:04:40.302Z,101515.79
2019-04-21T06:07:02.209Z,101514.71
2019-04-21T06:09:26.703Z,101521.86
2019-04-21T06:11:59.741Z,101522.95
2019-04-21T06:14:30.508Z,101521.55
2019-04-21T06:17:03.953Z,101523.86
2019-04-21T06:19:36.602Z,101527.64
2019-04-21T06:21:57.456Z,101527.34
2019-04-21T06:24:29.908Z,101518.83
2019-04-21T06:27:22.457Z,101521.28
2019-04-21T06:29:38.070Z,101520.65
2019-04-21T06:34:49.504Z,101524.23
2019-04-21T06:37:45.705Z,101531.78
2019-04-21T06:40:12.721Z,101522.09
2019-04-21T06:42:28.368Z,101528.42
2019-04-21T06:44:57.475Z,101521.29
2019-04-21T06:47:36.171Z,101518.94
2019-04-21T06:50:00.413Z,101528.90
2019-04-21T06:52:46.657Z,101513.27
2019-04-21T06:55:12.136Z,101509.23
2019-04-21T06:57:44.491Z,101511.07
2019-04-21T07:00:15.191Z,101517.58
2019-04-21T07:02:54.606Z,101508.88
2019-04-21T07:05:15.777Z,101510.33
2019-04-21T07:08:09.228Z,101510.64
2019-04-21T07:10:16.611Z,101507.45
2019-04-21T07:12:46.712Z,101499.53
2019-04-21T07:15:16.810Z,101500.27
2019-04-21T07:17:54.041Z,101503.52
2019-04-21T07:20:21.744Z,101496.48
2019-04-21T07:22:56.501Z,101498.91
2019-04-21T07:25:29.636Z,101500.09
2019-04-21T07:27:53.793Z,101499.19
2019-04-21T07:30:31.181Z,101500.58
2019-04-21T07:33:07.753Z,101494.75
2019-04-21T07:35:31.967Z,101504.42
2019-04-21T07:37:58.967Z,101494.39
2019-04-21T07:40:27.487Z,101493.95
2019-04-21T07:42:57.892Z,101495.42
2019-04-21T07:45:26.301Z,101488.91
2019-04-21T07:48:09.314Z,101483.51
2019-04-21T07:51:18.883Z,101489.35
2019-04-21T07:56:10.750Z,101479.08
2019-04-21T08:01:30.720Z,101482.32
2019-04-21T08:03:59.506Z,101471.09
2019-04-21T08:06:34.956Z,101472.88
2019-04-21T08:08:59.230Z,101471.70
2019-04-21T08:11:28.255Z,101468.14
2019-04-21T08:14:01.098Z,101469.81
2019-04-21T08:16:42.763Z,101473.83
2019-04-21T08:19:07.227Z,101473.16
2019-04-21T08:21:43.229Z,101474.09
2019-04-21T08:24:09.971Z,101468.79
2019-04-21T08:26:45.032Z,101468.64
2019-04-21T08:34:22.667Z,101461.07
2019-04-21T08:36:52.720Z,101458.87
2019-04-21T08:39:24.117Z,101456.30
2019-04-21T08:41:49.626Z,101452.69
2019-04-21T08:44:25.726Z,101443.47
2019-04-21T08:46:58.775Z,101439.83
2019-04-21T08:49:29.348Z,101443.95
2019-04-21T08:54:38.689Z,101430.71
2019-04-21T08:57:28.962Z,101427.39
2019-04-21T09:00:05.845Z,101417.78
2019-04-21T09:02:40.387Z,101421.09
2019-04-21T09:05:14.164Z,101415.59
2019-04-21T09:07:44.936Z,101408.66
2019-04-21T09:10:09.426Z,101411.28
2019-04-21T09:12:46.575Z,101411.66
2019-04-21T09:15:21.606Z,101417.16
2019-04-21T09:17:41.086Z,101422.80
2019-04-21T09:20:38.718Z,101417.91
2019-04-21T09:22:50.555Z,101422.35
2019-04-21T09:25:27.020Z,101415.70
2019-04-21T09:27:46.776Z,101415.83
2019-04-21T09:30:06.952Z,101411.23
2019-04-21T09:32:38.584Z,101405.88
2019-04-21T09:35:11.262Z,101406.95
2019-04-21T09:37:49.435Z,101401.19
2019-04-21T09:40:16.908Z,101399.25
2019-04-21T09:42:54.212Z,101396.85
2019-04-21T09:45:17.668Z,101395.47
2019-04-21T09:47:57.173Z,101393.65
2019-04-21T09:50:19.830Z,101383.02
2019-04-21T09:52:55.349Z,101381.37
2019-04-21T09:55:26.590Z,101383.05
2019-04-21T09:58:06.976Z,101391.27
2019-04-21T10:00:29.276Z,101387.22
2019-04-21T10:03:02.889Z,101379.56
2019-04-21T10:05:29.748Z,101390.64
2019-04-21T10:07:59.800Z,101385.56
2019-04-21T10:10:31.933Z,101386.78
2019-04-21T10:13:02.769Z,101376.18
2019-04-21T10:15:33.255Z,101378.20
2019-04-21T10:18:06.356Z,101378.75
2019-04-21T10:20:36.340Z,101376.17
2019-04-21T10:23:07.180Z,101375.13
2019-04-21T10:25:38.628Z,101369.80
2019-04-21T10:28:08.228Z,101366.73
2019-04-21T10:30:38.516Z,101363.03
2019-04-21T10:33:08.467Z,101372.41
2019-04-21T10:35:39.287Z,101369.56
2019-04-21T10:38:21.779Z,101369.27
2019-04-21T10:40:41.390Z,101362.89
2019-04-21T10:43:13.692Z,101352.30
2019-04-21T10:45:43.230Z,101349.14
2019-04-21T10:48:14.609Z,101346.83
2019-04-21T10:50:45.301Z,101346.75
2019-04-21T10:53:24.936Z,101343.89
2019-04-21T10:56:08.204Z,101349.36
2019-04-21T10:58:32.392Z,101340.56
2019-04-21T11:01:10.801Z,101337.48
2019-04-21T11:03:46.663Z,101343.71
2019-04-21T11:06:18.930Z,101333.36
2019-04-21T11:08:57.920Z,101333.11
2019-04-21T11:11:25.924Z,101327.70
2019-04-21T11:13:56.819Z,101325.31
2019-04-21T11:16:27.096Z,101327.34
2019-04-21T11:18:57.821Z,101320.16
2019-04-21T11:21:27.531Z,101321.34
2019-04-21T11:23:58.434Z,101319.73
2019-04-21T11:26:28.129Z,101326.08
2019-04-21T11:29:07.323Z,101322.91
2019-04-21T11:31:36.962Z,101328.29
2019-04-21T11:34:07.300Z,101320.16
2019-04-21T11:36:37.580Z,101322.91
2019-04-21T11:39:39.196Z,101318.48
2019-04-21T11:42:05.788Z,101316.15
2019-04-21T11:44:35.415Z,101316.55
2019-04-21T11:47:07.642Z,101318.52
2019-04-21T11:49:37.207Z,101317.75
2019-04-21T11:52:07.112Z,101314.48
2019-04-21T11:54:42.696Z,101304.72
2019-04-21T11:57:15.143Z,101305.55
2019-04-21T11:59:42.139Z,101299.62
2019-04-21T12:02:15.265Z,101293.69
2019-04-21T12:04:45.381Z,101295.33
2019-04-21T12:07:17.513Z,101296.89
2019-04-21T12:09:47.923Z,101302.34
2019-04-21T12:12:18.901Z,101297.46
2019-04-21T12:14:50.199Z,101285.19
2019-04-21T12:17:20.397Z,101285.73
2019-04-21T12:19:50.686Z,101285.47
2019-04-21T12:22:25.522Z,101287.88
2019-04-21T12:24:53.260Z,101288.45
2019-04-21T12:27:29.841Z,101285.44
2019-04-21T12:29:59.712Z,101277.03
2019-04-21T12:32:44.323Z,101277.66
2019-04-21T12:35:17.534Z,101272.57
2019-04-21T12:37:48.916Z,101267.11
2019-04-21T12:40:20.984Z,101264.67
2019-04-21T12:42:50.593Z,101266.48
2019-04-21T12:45:22.049Z,101266.20
2019-04-21T12:47:53.901Z,101253.64
2019-04-21T12:50:23.706Z,101260.98
2019-04-21T12:52:53.697Z,101256.12
2019-04-21T12:55:30.581Z,101259.44
2019-04-21T12:57:59.837Z,101254.27
2019-04-21T13:00:31.254Z,101254.55
2019-04-21T13:03:01.605Z,101250.58
2019-04-21T13:05:31.663Z,101243.29
2019-04-21T13:08:01.686Z,101237.27
2019-04-21T13:10:31.086Z,101238.62
2019-04-21T13:13:02.215Z,101237.78
2019-04-21T13:15:31.721Z,101238.81
2019-04-21T13:18:02.837Z,101239.02
2019-04-21T13:20:32.386Z,101225.38
2019-04-21T13:23:01.933Z,101221.62
2019-04-21T13:25:31.778Z,101224.98
2019-04-21T13:28:01.184Z,101221.23
2019-04-21T13:30:30.800Z,101220.75
2019-04-21T13:33:00.838Z,101221.13
2019-04-21T13:35:30.975Z,101213.25
2019-04-21T13:38:04.647Z,101215.48
2019-04-21T13:41:17.867Z,101212.73
2019-04-21T13:43:35.061Z,101206.73
2019-04-21T13:46:05.889Z,101203.48
2019-04-21T13:48:52.762Z,101205.09
2019-04-21T13:51:22.912Z,101208.05
2019-04-21T13:53:53.583Z,101204.80
2019-04-21T13:56:26.694Z,101207.23
2019-04-21T13:58:56.468Z,101198.51
2019-04-21T14:01:27.630Z,101198.77
2019-04-21T14:03:57.806Z,101195.19
2019-04-21T14:06:27.324Z,101195.42
2019-04-21T14:08:57.066Z,101188.62
2019-04-21T14:11:29.288Z,101192.20
2019-04-21T14:14:00.510Z,101187.84
2019-04-21T14:16:30.162Z,101191.75
2019-04-21T14:19:03.482Z,101188.44
2019-04-21T14:21:33.763Z,101181.36
2019-04-21T14:24:04.521Z,101186.63
2019-04-21T14:26:34.613Z,101184.45
2019-04-21T14:29:05.815Z,101181.41
2019-04-21T14:31:35.307Z,101181.36
2019-04-21T14:34:05.955Z,101179.49
2019-04-21T14:36:37.036Z,101184.09
2019-04-21T14:39:12.546Z,101181.33
2019-04-21T14:41:42.306Z,101184.03
2019-04-21T14:44:13.173Z,101186.97
2019-04-21T14:47:17.218Z,101179.06
2019-04-21T14:50:20.362Z,101182.13
2019-04-21T14:53:16.037Z,101182.99
2019-04-21T14:55:49.117Z,101181.88
2019-04-21T14:58:25.431Z,101178.63
2019-04-21T15:01:08.158Z,101177.53
2019-04-21T15:03:39.678Z,101179.94
2019-04-21T15:06:09.375Z,101179.90
2019-04-21T15:08:39.559Z,101179.08
2019-04-21T15:11:09.070Z,101178.50
2019-04-21T15:13:39.661Z,101173.86
2019-04-21T15:16:09.340Z,101176.25
2019-04-21T15:18:42.385Z,101174.56
2019-04-21T15:21:13.255Z,101175.65
2019-04-21T15:23:44.684Z,101176.73
2019-04-21T15:26:14.675Z,101172.37
2019-04-21T15:28:44.576Z,101166.63
2019-04-21T15:31:20.493Z,101171.27
2019-04-21T15:33:47.375Z,101172.91
2019-04-21T15:36:16.997Z,101164.73
2019-04-21T15:38:47.881Z,101166.09
2019-04-21T15:41:32.395Z,101169.10
2019-04-21T15:43:49.301Z,101171.31
2019-04-21T15:46:19.032Z,101169.98
2019-04-21T15:48:48.890Z,101170.86
2019-04-21T15:51:19.797Z,101174.48
2019-04-21T15:53:57.605Z,101170.24
2019-04-21T15:56:44.785Z,101162.08
2019-04-21T15:59:34.575Z,101162.38
2019-04-21T16:02:22.410Z,101159.38
2019-04-21T16:04:54.885Z,101164.60
2019-04-21T16:07:24.619Z,101152.82
2019-04-21T16:10:10.045Z,101159.88
2019-04-21T16:12:45.952Z,101153.55
2019-04-21T16:15:18.797Z,101151.31
2019-04-21T16:17:51.140Z,101148.52
2019-04-21T16:20:21.842Z,101144.88
2019-04-21T16:22:52.858Z,101144.48
2019-04-21T16:25:26.724Z,101146.11
2019-04-21T16:27:57.287Z,101142.56
2019-04-21T16:30:26.979Z,101141.87
2019-04-21T16:32:56.762Z,101148.78
2019-04-21T16:35:26.686Z,101142.27
2019-04-21T16:37:57.868Z,101145.92
2019-04-21T16:40:39.736Z,101146.52
2019-04-21T16:43:00.357Z,101147.35
2019-04-21T16:45:30.755Z,101146.77
2019-04-21T16:48:01.121Z,101150.59
2019-04-21T16:50:31.816Z,101162.87
2019-04-21T16:53:22.074Z,101165.30
2019-04-21T16:56:09.034Z,101157.82
2019-04-21T16:58:42.928Z,101166.97
2019-04-21T17:01:21.946Z,101156.50
2019-04-21T17:03:52.753Z,101168.50
2019-04-21T17:06:22.856Z,101167.16
2019-04-21T17:08:54.545Z,101172.13
2019-04-21T17:11:30.421Z,101179.20
2019-04-21T17:13:56.600Z,101173.91
2019-04-21T17:16:51.520Z,101177.07
2019-04-21T17:19:09.577Z,101182.72
2019-04-21T17:21:30.234Z,101180.30
2019-04-21T17:24:00.013Z,101187.83
2019-04-21T17:26:30.997Z,101181.62
2019-04-21T17:29:02.543Z,101188.12
2019-04-21T17:31:32.284Z,101173.37
2019-04-21T17:34:11.898Z,101182.09
2019-04-21T17:36:34.912Z,101179.42
2019-04-21T17:39:06.894Z,101179.71
2019-04-21T17:41:43.437Z,101181.22
2019-04-21T17:44:08.790Z,101179.95
2019-04-21T17:46:46.566Z,101175.55
2019-04-21T17:49:10.830Z,101184.77
2019-04-21T17:51:55.687Z,101180.88
2019-04-21T17:54:37.633Z,101174.00
2019-04-21T17:57:26.679Z,101180.23
2019-04-21T18:00:04.051Z,101183.13
2019-04-21T18:02:34.030Z,101181.85
2019-04-21T18:05:08.559Z,101192.42
2019-04-21T18:07:35.112Z,101196.25
2019-04-21T18:10:17.477Z,101190.63
2019-04-21T18:12:38.812Z,101195.63
2019-04-21T18:15:13.565Z,101191.22
2019-04-21T18:17:24.601Z,101188.88
2019-04-21T18:19:57.346Z,101198.85
2019-04-21T18:22:54.704Z,101196.55
2019-04-21T18:25:37.636Z,101201.58
2019-04-21T18:27:56.637Z,101203.16
2019-04-21T18:30:46.817Z,101205.26
2019-04-21T18:33:22.276Z,101203.17
2019-04-21T18:36:07.088Z,101201.09
2019-04-21T18:39:01.222Z,101208.02
2019-04-21T18:41:13.344Z,101212.53
2019-04-21T18:44:13.340Z,101212.94
2019-04-21T18:46:46.178Z,101220.62
2019-04-21T18:49:11.369Z,101223.81
2019-04-21T18:52:17.166Z,101225.14
2019-04-21T18:54:54.742Z,101222.00
2019-04-21T18:57:21.905Z,101234.61
2019-04-21T18:59:44.015Z,101234.94
2019-04-21T19:02:17.464Z,101250.13
2019-04-21T19:04:46.477Z,101242.73
2019-04-21T19:07:26.557Z,101246.52
2019-04-21T19:12:50.653Z,101254.64
2019-04-21T19:15:13.666Z,101256.72
2019-04-21T19:18:24.853Z,101248.88
2019-04-21T19:20:24.185Z,101256.54
2019-04-21T19:22:42.716Z,101256.36
2019-04-21T19:25:16.707Z,101251.89
2019-04-21T19:27:49.134Z,101265.80
2019-04-21T19:30:30.189Z,101262.81
2019-04-21T19:32:51.484Z,101268.31
2019-04-21T19:35:07.858Z,101267.47
2019-04-21T19:37:45.218Z,101268.19
2019-04-21T19:40:27.618Z,101270.38
2019-04-21T19:42:50.922Z,101274.08
2019-04-21T19:45:29.728Z,101273.22
2019-04-21T19:48:01.009Z,101279.72
2019-04-21T19:50:35.033Z,101282.81
2019-04-21T19:52:55.345Z,101281.98
2019-04-21T19:55:18.218Z,101281.95
2019-04-21T19:57:49.177Z,101279.03
2019-04-21T20:00:19.310Z,101282.74
2019-04-21T20:02:50.452Z,101288.01
2019-04-21T20:05:32.725Z,101290.38
2019-04-21T20:08:08.323Z,101292.70
2019-04-21T20:10:44.435Z,101298.48
2019-04-21T20:13:18.074Z,101295.27
2019-04-21T20:15:47.300Z,101300.39
2019-04-21T20:18:07.069Z,101299.87
2019-04-21T20:20:28.986Z,101306.09
2019-04-21T20:22:59.354Z,101304.60
2019-04-21T20:25:29.531Z,101305.48
2019-04-21T20:28:09.080Z,101319.50
2019-04-21T20:30:49.034Z,101319.59
2019-04-21T20:33:41.671Z,101322.50
2019-04-21T20:35:57.071Z,101322.56
2019-04-21T20:38:16.088Z,101322.02
2019-04-21T20:40:48.942Z,101318.70
2019-04-21T20:43:31.071Z,101316.13
2019-04-21T20:46:03.553Z,101323.96
2019-04-21T20:48:26.596Z,101323.70
2019-04-21T20:51:09.227Z,101322.64
2019-04-21T20:53:30.296Z,101326.08
2019-04-21T20:56:01.169Z,101325.91
2019-04-21T20:58:34.269Z,101319.81
2019-04-21T21:03:46.453Z,101328.19
2019-04-21T21:06:08.206Z,101328.45
2019-04-21T21:08:40.199Z,101327.35
2019-04-21T21:11:09.559Z,101325.55
2019-04-21T21:13:47.876Z,101326.01
2019-04-21T21:16:20.190Z,101326.05
2019-04-21T21:19:08.587Z,101327.66
2019-04-21T21:21:15.193Z,101335.61
2019-04-21T21:23:51.252Z,101335.55
2019-04-21T21:26:25.638Z,101330.92
2019-04-21T21:28:46.063Z,101336.59
2019-04-21T21:31:25.293Z,101338.48
2019-04-21T21:36:33.894Z,101336.56
2019-04-21T21:39:01.251Z,101339.64
2019-04-21T21:41:22.157Z,101345.28
2019-04-21T21:43:59.933Z,101349.72
2019-04-21T21:46:40.319Z,101348.95
2019-04-21T21:49:03.824Z,101355.37
2019-04-21T21:51:41.149Z,101361.92
2019-04-21T21:53:57.067Z,101359.45
2019-04-21T21:56:26.855Z,101369.33
2019-04-21T21:58:57.116Z,101365.37
2019-04-21T22:01:31.905Z,101370.94
2019-04-21T22:04:08.449Z,101369.95
2019-04-21T22:06:38.685Z,101379.20
2019-04-21T22:09:04.064Z,101382.42
2019-04-21T22:11:33.905Z,101382.50
2019-04-21T22:14:08.129Z,101372.66
2019-04-21T22:16:45.489Z,101380.09
2019-04-21T22:19:21.869Z,101375.76
2019-04-21T22:22:02.470Z,101373.94
2019-04-21T22:24:27.898Z,101372.14
2019-04-21T22:26:45.238Z,101367.97
2019-04-21T22:29:15.972Z,101370.48
2019-04-21T22:31:46.886Z,101372.55
2019-04-21T22:34:21.860Z,101380.92
2019-04-21T22:36:58.983Z,101381.94
2019-04-21T22:39:36.119Z,101387.00
2019-04-21T22:42:01.816Z,101388.52
2019-04-21T22:44:22.705Z,101381.16
2019-04-21T22:47:02.185Z,101381.20
2019-04-21T22:49:23.885Z,101383.20
2019-04-21T22:51:54.305Z,101387.89
2019-04-21T22:54:31.451Z,101382.09
2019-04-21T22:57:02.568Z,101383.26
2019-04-21T22:59:28.598Z,101385.61
2019-04-21T23:01:59.427Z,101383.47
2019-04-21T23:04:36.885Z,101379.30
2019-04-21T23:07:07.400Z,101389.33
2019-04-21T23:09:32.928Z,101386.48
2019-04-21T23:12:03.330Z,101383.81
2019-04-21T23:14:46.841Z,101389.20
2019-04-21T23:17:29.877Z,101392.20
2019-04-21T23:19:53.717Z,101395.87
2019-04-21T23:22:31.353Z,101401.42
2019-04-21T23:25:03.384Z,101396.08
2019-04-21T23:27:23.978Z,101395.91
2019-04-21T23:30:11.669Z,101402.59
2019-04-21T23:32:27.827Z,101398.75
2019-04-21T23:34:47.688Z,101400.42
2019-04-21T23:37:21.732Z,101399.75
2019-04-21T23:39:52.167Z,101394.94
2019-04-21T23:42:30.538Z,101396.77
2019-04-21T23:44:58.093Z,101393.59
2019-04-21T23:47:36.323Z,101393.95
2019-04-21T23:50:02.769Z,101392.95
2019-04-21T23:52:27.872Z,101397.29
2019-04-21T23:55:01.054Z,101401.30
2019-04-21T23:57:38.011Z,101402.45
